createdAt,value
2023-03-26T06:49:24.764Z,12.38
2023-03-26T06:52:31.450Z,12.18
2023-03-26T07:53:52.149Z,14.00
2023-03-26T10:39:11.708Z,17.91
2023-03-26T11:01:40.802Z,17.45
2023-03-26T11:05:33.131Z,17.76
2023-03-26T11:08:44.307Z,18.06
2023-03-26T11:12:26.569Z,17.92
2023-03-26T11:20:27.441Z,17.74
2023-03-26T11:23:43.548Z,18.04
2023-03-26T11:26:55.798Z,18.59
2023-03-26T11:30:10.292Z,17.63
2023-03-26T11:33:20.897Z,16.99
2023-03-26T11:36:30.088Z,17.29
2023-03-26T11:39:41.643Z,17.72
2023-03-26T11:42:46.340Z,17.54
2023-03-26T11:45:51.727Z,17.32
2023-03-26T11:48:59.959Z,17.15
2023-03-26T11:52:03.922Z,16.88
2023-03-26T11:55:08.060Z,17.58
2023-03-26T11:58:35.343Z,17.38
2023-03-26T12:01:51.017Z,17.37
2023-03-26T12:05:25.108Z,17.38
2023-03-26T12:08:39.706Z,16.85
2023-03-26T12:11:45.247Z,16.72
2023-03-26T12:14:48.471Z,16.69
2023-03-26T12:17:57.094Z,16.54
2023-03-26T12:21:08.767Z,17.06
2023-03-26T12:24:24.886Z,17.29
2023-03-26T12:27:32.995Z,17.47
2023-03-26T12:30:39.970Z,16.65
2023-03-26T12:33:42.932Z,16.41
2023-03-26T12:36:52.466Z,16.59
2023-03-26T12:40:14.282Z,17.24
2023-03-26T12:44:51.383Z,17.81
2023-03-26T12:47:59.158Z,17.80
2023-03-26T12:50:55.450Z,17.20
2023-03-26T12:54:05.835Z,17.73
2023-03-26T12:57:13.705Z,17.68
2023-03-26T13:00:28.907Z,17.58
2023-03-26T13:03:41.688Z,17.67
2023-03-26T13:07:00.180Z,17.19
2023-03-26T13:10:50.065Z,17.13
2023-03-26T13:14:13.201Z,17.55
2023-03-26T13:17:25.847Z,17.88
2023-03-26T13:20:43.849Z,17.59
2023-03-26T13:23:49.576Z,17.56
2023-03-26T13:27:18.227Z,17.58
2023-03-26T13:30:36.781Z,17.22
2023-03-26T13:34:03.632Z,16.99
2023-03-26T13:37:38.371Z,16.97
2023-03-26T13:41:04.219Z,17.01
2023-03-26T13:44:32.635Z,16.95
2023-03-26T13:47:41.627Z,16.82
2023-03-26T13:50:57.845Z,16.84
2023-03-26T13:54:26.269Z,17.03
2023-03-26T13:57:55.910Z,17.10
2023-03-26T14:01:09.778Z,17.15
2023-03-26T14:04:43.868Z,17.26
2023-03-26T14:07:57.296Z,17.42
2023-03-26T14:11:25.499Z,17.28
2023-03-26T14:14:44.218Z,17.30
2023-03-26T14:17:59.308Z,17.28
2023-03-26T14:21:05.078Z,17.39
2023-03-26T14:24:45.096Z,17.37
2023-03-26T14:28:13.624Z,17.61
2023-03-26T14:31:34.262Z,17.55
2023-03-26T14:34:47.625Z,17.62
2023-03-26T14:38:33.050Z,17.49
2023-03-26T14:42:01.990Z,17.75
2023-03-26T14:45:40.918Z,17.48
2023-03-26T14:49:01.844Z,17.44
2023-03-26T14:52:43.095Z,17.52
2023-03-26T14:55:56.681Z,17.71
2023-03-26T14:59:12.166Z,17.37
2023-03-26T15:02:43.078Z,17.24
2023-03-26T15:06:04.249Z,17.10
2023-03-26T15:09:15.884Z,16.97
2023-03-26T15:12:28.292Z,17.04
2023-03-26T15:15:42.707Z,17.01
2023-03-26T15:19:11.965Z,16.84
2023-03-26T15:22:32.753Z,16.90
2023-03-26T15:26:18.911Z,16.85
2023-03-26T15:29:24.013Z,16.76
2023-03-26T15:32:57.997Z,16.63
2023-03-26T15:36:13.916Z,16.64
2023-03-26T15:39:44.522Z,16.59
2023-03-26T15:43:10.474Z,16.60
2023-03-26T15:46:37.651Z,16.46
2023-03-26T15:49:44.980Z,16.33
2023-03-26T15:52:57.186Z,16.33
2023-03-26T15:56:08.989Z,16.11
2023-03-26T15:59:33.348Z,15.99
2023-03-26T16:02:58.167Z,15.82
2023-03-26T16:06:31.384Z,15.73
2023-03-26T16:09:49.941Z,15.43
2023-03-26T16:13:24.505Z,15.27
2023-03-26T16:16:58.553Z,15.16
2023-03-26T16:20:34.987Z,14.77
2023-03-26T16:23:47.950Z,14.59
2023-03-26T16:27:08.352Z,14.46
2023-03-26T16:30:30.659Z,14.46
2023-03-26T16:33:45.403Z,14.25
2023-03-26T16:36:51.463Z,14.12
2023-03-26T16:39:54.828Z,13.99
2023-03-26T16:43:06.567Z,13.77
2023-03-26T16:46:28.170Z,13.63
2023-03-26T16:49:31.528Z,13.64
2023-03-26T16:53:03.942Z,13.45
2023-03-26T16:56:15.978Z,13.36
2023-03-26T16:59:41.138Z,13.42
2023-03-26T17:02:49.882Z,13.19
2023-03-26T17:05:58.460Z,13.21
2023-03-26T17:09:13.261Z,13.14
2023-03-26T17:12:37.024Z,13.04
2023-03-26T17:15:48.925Z,13.03
2023-03-26T17:18:51.982Z,12.85
2023-03-26T17:22:24.020Z,12.79
2023-03-26T17:25:53.737Z,12.70
2023-03-26T17:29:22.534Z,12.60
2023-03-26T17:32:54.282Z,12.54
2023-03-26T17:36:12.617Z,12.53
2023-03-26T17:39:21.229Z,12.27
2023-03-26T17:42:32.922Z,12.23
2023-03-26T17:45:39.323Z,12.11
2023-03-26T17:48:47.067Z,11.96
2023-03-26T17:52:05.605Z,11.83
2023-03-26T17:55:13.439Z,11.90
2023-03-26T17:58:42.657Z,11.77
2023-03-26T18:01:48.229Z,11.71
2023-03-26T18:04:53.941Z,11.66
2023-03-26T18:07:59.620Z,11.84
2023-03-26T18:11:19.835Z,11.84
2023-03-26T18:14:40.681Z,11.74
2023-03-26T18:17:46.952Z,11.59
2023-03-26T18:20:52.306Z,11.65
2023-03-26T18:23:59.542Z,11.65
2023-03-26T18:27:12.422Z,11.38
2023-03-26T18:30:22.732Z,11.42
2023-03-26T18:33:26.098Z,11.59
2023-03-26T18:36:31.238Z,11.49
2023-03-26T18:39:34.490Z,11.58
2023-03-26T18:42:39.696Z,11.49
2023-03-26T18:45:44.808Z,11.49
2023-03-26T18:48:47.896Z,11.57
2023-03-26T18:51:57.277Z,11.49
2023-03-26T18:55:02.880Z,11.40
2023-03-26T18:58:26.287Z,11.29
2023-03-26T19:01:32.559Z,11.43
2023-03-26T19:04:36.928Z,11.22
2023-03-26T19:07:40.150Z,11.22
2023-03-26T19:10:44.284Z,11.30
2023-03-26T19:13:59.531Z,11.35
2023-03-26T19:17:05.432Z,11.14
2023-03-26T19:20:21.974Z,11.07
2023-03-26T19:23:36.357Z,11.20
2023-03-26T19:26:42.490Z,11.33
2023-03-26T19:29:47.153Z,11.42
2023-03-26T19:33:13.241Z,11.46
2023-03-26T19:36:21.348Z,11.49
2023-03-26T19:39:37.085Z,11.62
2023-03-26T19:42:44.833Z,11.68
2023-03-26T19:46:00.053Z,11.73
2023-03-26T19:49:04.650Z,11.73
2023-03-26T19:52:16.007Z,11.77
2023-03-26T19:55:24.101Z,11.74
2023-03-26T19:58:27.633Z,11.72
2023-03-26T20:01:31.916Z,11.71
2023-03-26T20:04:34.971Z,11.75
2023-03-26T20:07:39.342Z,11.66
2023-03-26T20:10:43.688Z,11.56
2023-03-26T20:13:46.610Z,11.72
2023-03-26T20:16:49.809Z,11.60
2023-03-26T20:19:54.313Z,11.58
2023-03-26T20:22:57.748Z,11.65
2023-03-26T20:26:00.453Z,11.77
2023-03-26T20:29:04.068Z,11.80
2023-03-26T20:32:27.497Z,11.51
2023-03-26T20:35:35.511Z,11.46
2023-03-26T20:38:40.333Z,11.55
2023-03-26T20:41:48.688Z,11.60
2023-03-26T20:44:51.415Z,11.60
2023-03-26T20:47:54.460Z,11.59
2023-03-26T20:50:57.367Z,11.55
2023-03-26T20:54:00.820Z,11.54
2023-03-26T20:57:03.698Z,11.56
2023-03-26T21:00:20.889Z,11.60
2023-03-26T21:03:23.646Z,11.53
2023-03-26T21:06:26.909Z,11.41
2023-03-26T21:09:35.558Z,11.21
2023-03-26T21:12:50.796Z,10.82
2023-03-26T21:15:53.789Z,10.60
2023-03-26T21:18:57.700Z,10.40
2023-03-26T21:22:30.568Z,10.29
2023-03-26T21:25:48.924Z,10.06
2023-03-26T21:28:51.881Z,9.97
2023-03-26T21:31:55.693Z,10.01
2023-03-26T21:34:59.656Z,9.86
2023-03-26T21:38:06.766Z,9.92
2023-03-26T21:41:25.163Z,9.88
2023-03-26T21:44:28.773Z,9.85
2023-03-26T21:47:31.791Z,9.93
2023-03-26T21:50:36.494Z,9.77
2023-03-26T21:53:39.436Z,9.82
2023-03-26T21:56:51.382Z,9.86
2023-03-26T21:59:57.077Z,9.80
2023-03-26T22:03:12.258Z,9.74
2023-03-26T22:06:20.422Z,9.50
2023-03-26T22:09:33.693Z,9.40
2023-03-26T22:12:39.660Z,9.25
2023-03-26T22:15:42.329Z,9.27
2023-03-26T22:18:45.463Z,9.16
2023-03-26T22:21:48.194Z,9.27
2023-03-26T22:24:51.821Z,9.09
2023-03-26T22:27:54.800Z,9.21
2023-03-26T22:30:58.598Z,9.21
2023-03-26T22:34:01.943Z,9.17
2023-03-26T22:37:05.735Z,9.14
2023-03-26T22:40:09.163Z,8.91
2023-03-26T22:43:12.311Z,9.17
2023-03-26T22:46:15.385Z,8.96
2023-03-26T22:49:18.696Z,8.80
2023-03-26T22:52:21.544Z,8.92
2023-03-26T22:55:28.800Z,8.83
2023-03-26T22:58:34.008Z,8.76
2023-03-26T23:01:37.239Z,8.79
2023-03-26T23:04:42.686Z,8.69
2023-03-26T23:07:46.217Z,8.73
2023-03-26T23:10:48.903Z,8.76
2023-03-26T23:13:52.110Z,8.76
2023-03-26T23:16:55.416Z,8.64
2023-03-26T23:19:58.489Z,8.72
2023-03-26T23:23:01.375Z,8.62
2023-03-26T23:26:04.953Z,8.75
2023-03-26T23:29:08.079Z,8.71
2023-03-26T23:32:24.638Z,8.60
2023-03-26T23:35:27.815Z,8.67
2023-03-26T23:38:44.183Z,8.60
2023-03-26T23:41:47.324Z,8.57
2023-03-26T23:44:50.264Z,8.27
2023-03-26T23:47:53.109Z,8.40
2023-03-26T23:51:03.018Z,8.59
2023-03-26T23:54:08.602Z,8.39
2023-03-26T23:57:11.937Z,8.38
